sensor_id;sensor_type;location;lat;lon;timestamp;pressure;altitude;pressure_sealevel;temperature;humidity
9676;BME280;4876;42.656;23.292;2023-05-22T00:00:49;94121.78;;;14.44;82.04
9676;BME280;4876;42.656;23.292;2023-05-22T00:03:17;94128.53;;;14.41;82.14
9676;BME280;4876;42.656;23.292;2023-05-22T00:05:45;94123.91;;;14.38;82.78
9676;BME280;4876;42.656;23.292;2023-05-22T00:08:12;94120.66;;;14.29;82.83
9676;BME280;4876;42.656;23.292;2023-05-22T00:10:39;94120.44;;;14.22;83.84
9676;BME280;4876;42.656;23.292;2023-05-22T00:13:06;94115.06;;;14.18;83.59
9676;BME280;4876;42.656;23.292;2023-05-22T00:15:33;94117.94;;;14.13;84.36
9676;BME280;4876;42.656;23.292;2023-05-22T00:17:59;94113.13;;;14.03;85.26
9676;BME280;4876;42.656;23.292;2023-05-22T00:20:26;94118.72;;;13.86;86.00
9676;BME280;4876;42.656;23.292;2023-05-22T00:22:54;94112.78;;;13.77;87.76
9676;BME280;4876;42.656;23.292;2023-05-22T00:25:22;94118.13;;;13.92;87.14
9676;BME280;4876;42.656;23.292;2023-05-22T00:27:49;94124.72;;;13.98;87.07
9676;BME280;4876;42.656;23.292;2023-05-22T00:30:15;94123.13;;;14.10;86.84
9676;BME280;4876;42.656;23.292;2023-05-22T00:32:42;94129.28;;;14.14;86.63
9676;BME280;4876;42.656;23.292;2023-05-22T00:35:09;94115.81;;;14.19;87.02
9676;BME280;4876;42.656;23.292;2023-05-22T00:37:36;94120.66;;;14.29;85.28
9676;BME280;4876;42.656;23.292;2023-05-22T00:40:06;94116.00;;;14.26;85.29
9676;BME280;4876;42.656;23.292;2023-05-22T00:42:33;94122.00;;;14.23;86.03
9676;BME280;4876;42.656;23.292;2023-05-22T00:45:00;94120.13;;;14.23;85.20
9676;BME280;4876;42.656;23.292;2023-05-22T00:47:26;94128.31;;;14.34;84.47
9676;BME280;4876;42.656;23.292;2023-05-22T00:49:53;94129.94;;;14.39;83.68
9676;BME280;4876;42.656;23.292;2023-05-22T00:52:20;94129.38;;;14.45;83.33
9676;BME280;4876;42.656;23.292;2023-05-22T00:54:49;94121.13;;;14.47;83.22
9676;BME280;4876;42.656;23.292;2023-05-22T00:57:17;94125.63;;;14.46;83.43
9676;BME280;4876;42.656;23.292;2023-05-22T00:59:45;94126.78;;;14.33;84.22
9676;BME280;4876;42.656;23.292;2023-05-22T01:02:12;94119.78;;;14.25;85.31
9676;BME280;4876;42.656;23.292;2023-05-22T01:04:42;94126.78;;;14.33;85.01
9676;BME280;4876;42.656;23.292;2023-05-22T01:07:12;94124.31;;;14.40;84.52
9676;BME280;4876;42.656;23.292;2023-05-22T01:09:41;94108.44;;;14.40;84.09
9676;BME280;4876;42.656;23.292;2023-05-22T01:12:16;94125.06;;;14.53;83.65
9676;BME280;4876;42.656;23.292;2023-05-22T01:14:51;94117.03;;;14.49;83.76
9676;BME280;4876;42.656;23.292;2023-05-22T01:17:27;94125.31;;;14.48;83.87
9676;BME280;4876;42.656;23.292;2023-05-22T01:20:09;94127.50;;;14.46;83.94
9676;BME280;4876;42.656;23.292;2023-05-22T01:22:50;94123.22;;;14.41;84.42
9676;BME280;4876;42.656;23.292;2023-05-22T01:25:52;94124.25;;;14.37;85.19
9676;BME280;4876;42.656;23.292;2023-05-22T01:28:43;94125.53;;;14.43;84.75
9676;BME280;4876;42.656;23.292;2023-05-22T01:31:18;94115.09;;;14.34;85.00
9676;BME280;4876;42.656;23.292;2023-05-22T01:33:50;94115.97;;;14.38;84.42
9676;BME280;4876;42.656;23.292;2023-05-22T01:36:19;94103.56;;;14.26;84.27
9676;BME280;4876;42.656;23.292;2023-05-22T01:38:47;94110.06;;;14.29;84.90
9676;BME280;4876;42.656;23.292;2023-05-22T01:41:16;94107.41;;;14.29;84.67
9676;BME280;4876;42.656;23.292;2023-05-22T01:43:44;94107.84;;;14.31;84.79
9676;BME280;4876;42.656;23.292;2023-05-22T01:46:11;94103.41;;;14.35;84.52
9676;BME280;4876;42.656;23.292;2023-05-22T01:48:39;94108.78;;;14.39;84.34
9676;BME280;4876;42.656;23.292;2023-05-22T01:51:11;94113.97;;;14.47;82.93
9676;BME280;4876;42.656;23.292;2023-05-22T01:53:42;94113.28;;;14.50;83.08
9676;BME280;4876;42.656;23.292;2023-05-22T01:56:13;94081.97;;;14.24;83.36
9676;BME280;4876;42.656;23.292;2023-05-22T01:58:46;94104.59;;;14.38;83.75
9676;BME280;4876;42.656;23.292;2023-05-22T02:01:18;94109.38;;;14.32;83.86
9676;BME280;4876;42.656;23.292;2023-05-22T02:03:48;94105.84;;;14.28;84.00
9676;BME280;4876;42.656;23.292;2023-05-22T02:06:22;94107.66;;;14.24;84.61
9676;BME280;4876;42.656;23.292;2023-05-22T02:08:52;94106.97;;;14.27;83.90
9676;BME280;4876;42.656;23.292;2023-05-22T02:11:20;94108.44;;;14.24;83.95
9676;BME280;4876;42.656;23.292;2023-05-22T02:13:49;94096.44;;;14.15;83.90
9676;BME280;4876;42.656;23.292;2023-05-22T02:16:16;94106.03;;;14.19;83.94
9676;BME280;4876;42.656;23.292;2023-05-22T02:18:47;94105.78;;;14.24;83.72
9676;BME280;4876;42.656;23.292;2023-05-22T02:21:14;94106.78;;;14.20;83.23
9676;BME280;4876;42.656;23.292;2023-05-22T02:23:41;94104.56;;;14.22;83.72
9676;BME280;4876;42.656;23.292;2023-05-22T02:26:08;94112.00;;;14.16;83.83
9676;BME280;4876;42.656;23.292;2023-05-22T02:28:34;94105.06;;;14.12;83.89
9676;BME280;4876;42.656;23.292;2023-05-22T02:31:03;94108.47;;;14.12;83.78
9676;BME280;4876;42.656;23.292;2023-05-22T02:33:31;94103.19;;;14.12;83.83
9676;BME280;4876;42.656;23.292;2023-05-22T02:35:59;94104.72;;;14.13;83.63
9676;BME280;4876;42.656;23.292;2023-05-22T02:38:26;94107.47;;;14.17;83.29
9676;BME280;4876;42.656;23.292;2023-05-22T02:40:52;94114.53;;;14.13;83.29
9676;BME280;4876;42.656;23.292;2023-05-22T02:43:19;94110.94;;;14.05;83.96
9676;BME280;4876;42.656;23.292;2023-05-22T02:45:46;94087.94;;;13.93;84.13
9676;BME280;4876;42.656;23.292;2023-05-22T02:48:13;94107.34;;;13.97;84.04
9676;BME280;4876;42.656;23.292;2023-05-22T02:50:41;94102.34;;;13.96;84.36
9676;BME280;4876;42.656;23.292;2023-05-22T02:53:09;94097.59;;;14.01;83.78
9676;BME280;4876;42.656;23.292;2023-05-22T02:55:38;94092.84;;;13.79;84.13
9676;BME280;4876;42.656;23.292;2023-05-22T02:58:06;94095.19;;;13.68;85.20
9676;BME280;4876;42.656;23.292;2023-05-22T03:00:35;94089.78;;;13.65;85.46
9676;BME280;4876;42.656;23.292;2023-05-22T03:03:05;94098.28;;;13.58;85.31
9676;BME280;4876;42.656;23.292;2023-05-22T03:05:32;94059.72;;;13.29;86.20
9676;BME280;4876;42.656;23.292;2023-05-22T03:07:59;94097.53;;;13.45;86.54
9676;BME280;4876;42.656;23.292;2023-05-22T03:10:27;94093.59;;;13.39;87.18
9676;BME280;4876;42.656;23.292;2023-05-22T03:12:54;94100.53;;;13.32;87.90
9676;BME280;4876;42.656;23.292;2023-05-22T03:15:21;94102.41;;;13.43;88.61
9676;BME280;4876;42.656;23.292;2023-05-22T03:17:47;94107.53;;;13.64;88.31
9676;BME280;4876;42.656;23.292;2023-05-22T03:20:14;94099.75;;;13.84;85.28
9676;BME280;4876;42.656;23.292;2023-05-22T03:22:41;94102.03;;;13.97;85.28
9676;BME280;4876;42.656;23.292;2023-05-22T03:25:08;94103.56;;;13.98;84.15
9676;BME280;4876;42.656;23.292;2023-05-22T03:27:38;94110.00;;;13.85;84.49
9676;BME280;4876;42.656;23.292;2023-05-22T03:30:06;94105.22;;;13.91;84.26
9676;BME280;4876;42.656;23.292;2023-05-22T03:32:34;94087.78;;;13.74;84.56
9676;BME280;4876;42.656;23.292;2023-05-22T03:35:03;94100.09;;;13.82;85.59
9676;BME280;4876;42.656;23.292;2023-05-22T03:37:30;94110.25;;;14.08;85.01
9676;BME280;4876;42.656;23.292;2023-05-22T03:39:56;94109.16;;;14.53;82.71
9676;BME280;4876;42.656;23.292;2023-05-22T03:42:23;94112.03;;;15.07;79.99
9676;BME280;4876;42.656;23.292;2023-05-22T03:44:51;94105.44;;;15.68;78.68
9676;BME280;4876;42.656;23.292;2023-05-22T03:47:18;94107.56;;;15.78;76.70
9676;BME280;4876;42.656;23.292;2023-05-22T03:49:45;94103.06;;;15.63;76.04
9676;BME280;4876;42.656;23.292;2023-05-22T03:52:11;94115.78;;;15.57;76.56
9676;BME280;4876;42.656;23.292;2023-05-22T03:54:38;94114.66;;;15.58;76.69
9676;BME280;4876;42.656;23.292;2023-05-22T03:57:05;94108.09;;;15.52;76.85
9676;BME280;4876;42.656;23.292;2023-05-22T03:59:32;94108.91;;;15.37;77.57
9676;BME280;4876;42.656;23.292;2023-05-22T04:02:00;94113.53;;;15.24;78.68
9676;BME280;4876;42.656;23.292;2023-05-22T04:04:27;94099.38;;;15.01;79.88
9676;BME280;4876;42.656;23.292;2023-05-22T04:06:54;94110.84;;;15.05;81.11
9676;BME280;4876;42.656;23.292;2023-05-22T04:09:24;94081.47;;;14.78;81.05
9676;BME280;4876;42.656;23.292;2023-05-22T04:11:51;94112.28;;;15.18;80.18
9676;BME280;4876;42.656;23.292;2023-05-22T04:14:18;94117.31;;;15.23;80.22
9676;BME280;4876;42.656;23.292;2023-05-22T04:16:45;94118.94;;;15.28;79.92
9676;BME280;4876;42.656;23.292;2023-05-22T04:19:13;94123.78;;;15.26;79.55
9676;BME280;4876;42.656;23.292;2023-05-22T04:21:40;94121.09;;;15.22;80.31
9676;BME280;4876;42.656;23.292;2023-05-22T04:24:08;94107.28;;;15.32;80.30
9676;BME280;4876;42.656;23.292;2023-05-22T04:26:35;94114.41;;;15.28;80.14
9676;BME280;4876;42.656;23.292;2023-05-22T04:29:02;94114.91;;;15.02;83.61
9676;BME280;4876;42.656;23.292;2023-05-22T04:31:34;94093.72;;;15.18;82.12
9676;BME280;4876;42.656;23.292;2023-05-22T04:34:01;94118.09;;;15.08;83.70
9676;BME280;4876;42.656;23.292;2023-05-22T04:36:31;94122.97;;;15.06;83.09
9676;BME280;4876;42.656;23.292;2023-05-22T04:38:58;94119.81;;;15.16;83.74
9676;BME280;4876;42.656;23.292;2023-05-22T04:41:29;94132.84;;;15.25;83.12
9676;BME280;4876;42.656;23.292;2023-05-22T04:43:56;94123.88;;;15.29;82.19
9676;BME280;4876;42.656;23.292;2023-05-22T04:46:24;94135.91;;;15.27;81.93
9676;BME280;4876;42.656;23.292;2023-05-22T04:48:52;94129.94;;;15.30;82.13
9676;BME280;4876;42.656;23.292;2023-05-22T04:51:19;94128.03;;;15.46;81.46
9676;BME280;4876;42.656;23.292;2023-05-22T04:53:48;94123.53;;;15.82;80.64
9676;BME280;4876;42.656;23.292;2023-05-22T04:56:16;94124.19;;;16.56;76.81
9676;BME280;4876;42.656;23.292;2023-05-22T04:58:43;94125.69;;;16.96;74.18
9676;BME280;4876;42.656;23.292;2023-05-22T05:01:10;94133.28;;;16.98;74.47
9676;BME280;4876;42.656;23.292;2023-05-22T05:03:36;94129.50;;;16.99;73.60
9676;BME280;4876;42.656;23.292;2023-05-22T05:06:04;94137.06;;;16.97;72.89
9676;BME280;4876;42.656;23.292;2023-05-22T05:08:32;94132.28;;;16.83;73.22
9676;BME280;4876;42.656;23.292;2023-05-22T05:11:00;94128.38;;;17.22;73.01
9676;BME280;4876;42.656;23.292;2023-05-22T05:13:27;94136.03;;;17.77;69.87
9676;BME280;4876;42.656;23.292;2023-05-22T05:15:54;94141.22;;;18.26;68.08
9676;BME280;4876;42.656;23.292;2023-05-22T05:18:21;94138.31;;;18.39;66.08
9676;BME280;4876;42.656;23.292;2023-05-22T05:20:47;94140.69;;;18.47;65.84
9676;BME280;4876;42.656;23.292;2023-05-22T05:23:14;94149.03;;;18.79;64.25
9676;BME280;4876;42.656;23.292;2023-05-22T05:25:41;94142.00;;;17.97;68.00
9676;BME280;4876;42.656;23.292;2023-05-22T05:28:10;94144.94;;;18.52;65.80
9676;BME280;4876;42.656;23.292;2023-05-22T05:30:37;94137.28;;;18.88;64.71
9676;BME280;4876;42.656;23.292;2023-05-22T05:33:04;94143.56;;;19.06;63.88
9676;BME280;4876;42.656;23.292;2023-05-22T05:35:30;94142.28;;;19.37;62.79
9676;BME280;4876;42.656;23.292;2023-05-22T05:37:57;94152.91;;;19.81;61.27
9676;BME280;4876;42.656;23.292;2023-05-22T05:40:24;94153.25;;;19.76;61.67
9676;BME280;4876;42.656;23.292;2023-05-22T05:42:51;94150.50;;;19.18;62.80
9676;BME280;4876;42.656;23.292;2023-05-22T05:45:19;94155.78;;;19.07;62.71
9676;BME280;4876;42.656;23.292;2023-05-22T05:47:46;94152.19;;;18.89;63.39
9676;BME280;4876;42.656;23.292;2023-05-22T05:50:13;94148.88;;;19.06;62.44
9676;BME280;4876;42.656;23.292;2023-05-22T05:52:40;94149.03;;;19.24;61.56
9676;BME280;4876;42.656;23.292;2023-05-22T05:55:07;94158.97;;;19.27;62.20
9676;BME280;4876;42.656;23.292;2023-05-22T05:57:34;94155.91;;;19.25;59.24
9676;BME280;4876;42.656;23.292;2023-05-22T06:00:01;94148.88;;;19.06;57.98
9676;BME280;4876;42.656;23.292;2023-05-22T06:02:31;94154.78;;;19.29;58.79
9676;BME280;4876;42.656;23.292;2023-05-22T06:04:58;94155.47;;;19.63;58.13
9676;BME280;4876;42.656;23.292;2023-05-22T06:07:26;94152.09;;;19.70;57.87
9676;BME280;4876;42.656;23.292;2023-05-22T06:09:54;94154.56;;;19.45;57.62
9676;BME280;4876;42.656;23.292;2023-05-22T06:12:20;94149.78;;;18.76;59.04
9676;BME280;4876;42.656;23.292;2023-05-22T06:14:47;94150.72;;;18.61;60.40
9676;BME280;4876;42.656;23.292;2023-05-22T06:17:14;94145.88;;;19.11;59.85
9676;BME280;4876;42.656;23.292;2023-05-22T06:19:42;94155.00;;;18.69;59.53
9676;BME280;4876;42.656;23.292;2023-05-22T06:22:09;94150.16;;;18.78;59.61
9676;BME280;4876;42.656;23.292;2023-05-22T06:24:36;94154.84;;;18.89;59.50
9676;BME280;4876;42.656;23.292;2023-05-22T06:27:03;94156.13;;;18.35;61.17
9676;BME280;4876;42.656;23.292;2023-05-22T06:29:29;94159.56;;;18.35;61.79
9676;BME280;4876;42.656;23.292;2023-05-22T06:31:56;94155.56;;;18.86;61.04
9676;BME280;4876;42.656;23.292;2023-05-22T06:34:23;94150.34;;;18.96;59.23
9676;BME280;4876;42.656;23.292;2023-05-22T06:36:53;94158.88;;;19.16;58.67
9676;BME280;4876;42.656;23.292;2023-05-22T06:39:20;94147.09;;;19.17;56.49
9676;BME280;4876;42.656;23.292;2023-05-22T06:41:46;94149.22;;;19.49;55.46
9676;BME280;4876;42.656;23.292;2023-05-22T06:44:13;94148.22;;;19.64;55.41
9676;BME280;4876;42.656;23.292;2023-05-22T06:46:40;94148.50;;;19.52;56.25
9676;BME280;4876;42.656;23.292;2023-05-22T06:49:07;94133.91;;;19.35;56.64
9676;BME280;4876;42.656;23.292;2023-05-22T06:51:33;94155.41;;;19.56;54.87
9676;BME280;4876;42.656;23.292;2023-05-22T06:54:02;94148.00;;;19.90;56.17
9676;BME280;4876;42.656;23.292;2023-05-22T06:56:31;94155.38;;;19.53;57.59
9676;BME280;4876;42.656;23.292;2023-05-22T06:58:58;94151.53;;;19.50;56.26
9676;BME280;4876;42.656;23.292;2023-05-22T07:01:24;94150.94;;;19.71;56.89
9676;BME280;4876;42.656;23.292;2023-05-22T07:03:55;94155.03;;;20.27;51.37
9676;BME280;4876;42.656;23.292;2023-05-22T07:06:21;94156.94;;;20.23;50.64
9676;BME280;4876;42.656;23.292;2023-05-22T07:08:49;94153.16;;;20.35;50.94
9676;BME280;4876;42.656;23.292;2023-05-22T07:11:17;94142.97;;;20.62;51.08
9676;BME280;4876;42.656;23.292;2023-05-22T07:13:44;94162.69;;;20.36;49.91
9676;BME280;4876;42.656;23.292;2023-05-22T07:16:10;94148.06;;;20.01;52.12
9676;BME280;4876;42.656;23.292;2023-05-22T07:18:37;94136.53;;;19.86;52.24
9676;BME280;4876;42.656;23.292;2023-05-22T07:21:04;94153.44;;;20.12;52.28
9676;BME280;4876;42.656;23.292;2023-05-22T07:23:31;94154.97;;;20.09;52.15
9676;BME280;4876;42.656;23.292;2023-05-22T07:25:58;94159.16;;;20.10;52.00
9676;BME280;4876;42.656;23.292;2023-05-22T07:28:26;94147.75;;;19.55;53.16
9676;BME280;4876;42.656;23.292;2023-05-22T07:30:53;94155.25;;;19.39;52.61
9676;BME280;4876;42.656;23.292;2023-05-22T07:33:19;94146.66;;;19.12;52.81
9676;BME280;4876;42.656;23.292;2023-05-22T07:35:46;94146.06;;;19.32;53.27
9676;BME280;4876;42.656;23.292;2023-05-22T07:38:13;94145.59;;;19.71;52.65
9676;BME280;4876;42.656;23.292;2023-05-22T07:40:40;94143.78;;;19.86;54.09
9676;BME280;4876;42.656;23.292;2023-05-22T07:43:06;94148.84;;;20.09;52.30
9676;BME280;4876;42.656;23.292;2023-05-22T07:45:35;94144.25;;;20.02;52.12
9676;BME280;4876;42.656;23.292;2023-05-22T07:48:02;94148.28;;;19.75;52.81
9676;BME280;4876;42.656;23.292;2023-05-22T07:50:29;94144.56;;;19.94;51.54
9676;BME280;4876;42.656;23.292;2023-05-22T07:52:57;94144.19;;;19.88;53.38
9676;BME280;4876;42.656;23.292;2023-05-22T07:55:25;94143.31;;;19.70;54.73
9676;BME280;4876;42.656;23.292;2023-05-22T07:57:52;94138.84;;;19.33;55.49
9676;BME280;4876;42.656;23.292;2023-05-22T08:00:19;94137.50;;;19.09;55.45
9676;BME280;4876;42.656;23.292;2023-05-22T08:02:48;94136.84;;;19.23;54.45
9676;BME280;4876;42.656;23.292;2023-05-22T08:05:15;94134.22;;;19.30;54.97
9676;BME280;4876;42.656;23.292;2023-05-22T08:07:42;94140.22;;;19.64;53.25
9676;BME280;4876;42.656;23.292;2023-05-22T08:10:13;94144.16;;;19.84;53.46
9676;BME280;4876;42.656;23.292;2023-05-22T08:12:41;94144.91;;;19.81;52.93
9676;BME280;4876;42.656;23.292;2023-05-22T08:15:08;94141.09;;;19.86;52.45
9676;BME280;4876;42.656;23.292;2023-05-22T08:17:36;94148.22;;;20.33;52.58
9676;BME280;4876;42.656;23.292;2023-05-22T08:20:05;94134.91;;;20.48;51.12
9676;BME280;4876;42.656;23.292;2023-05-22T08:22:33;94135.63;;;20.41;50.12
9676;BME280;4876;42.656;23.292;2023-05-22T08:24:59;94145.16;;;20.35;50.98
9676;BME280;4876;42.656;23.292;2023-05-22T08:27:26;94149.69;;;20.20;51.42
9676;BME280;4876;42.656;23.292;2023-05-22T08:29:53;94136.69;;;20.15;51.68
9676;BME280;4876;42.656;23.292;2023-05-22T08:32:20;94144.50;;;19.79;53.57
9676;BME280;4876;42.656;23.292;2023-05-22T08:34:47;94135.94;;;19.56;52.14
9676;BME280;4876;42.656;23.292;2023-05-22T08:37:16;94135.47;;;19.40;51.69
9676;BME280;4876;42.656;23.292;2023-05-22T08:39:43;94135.69;;;19.72;52.26
9676;BME280;4876;42.656;23.292;2023-05-22T08:42:09;94136.47;;;19.72;50.30
9676;BME280;4876;42.656;23.292;2023-05-22T08:44:36;94139.53;;;19.78;49.61
9676;BME280;4876;42.656;23.292;2023-05-22T08:47:03;94123.13;;;19.72;50.16
9676;BME280;4876;42.656;23.292;2023-05-22T08:49:37;94135.94;;;20.22;49.53
9676;BME280;4876;42.656;23.292;2023-05-22T08:52:09;94124.63;;;20.50;50.11
9676;BME280;4876;42.656;23.292;2023-05-22T08:54:40;94127.25;;;20.42;46.83
9676;BME280;4876;42.656;23.292;2023-05-22T08:57:07;94126.19;;;20.72;48.30
9676;BME280;4876;42.656;23.292;2023-05-22T08:59:37;94125.09;;;21.16;48.65
9676;BME280;4876;42.656;23.292;2023-05-22T09:02:04;94127.41;;;21.00;46.20
9676;BME280;4876;42.656;23.292;2023-05-22T09:04:31;94127.00;;;20.97;43.76
9676;BME280;4876;42.656;23.292;2023-05-22T09:06:58;94128.88;;;20.68;43.53
9676;BME280;4876;42.656;23.292;2023-05-22T09:09:30;94130.84;;;21.04;45.16
9676;BME280;4876;42.656;23.292;2023-05-22T09:11:58;94122.81;;;20.96;47.07
9676;BME280;4876;42.656;23.292;2023-05-22T09:14:25;94119.38;;;21.60;48.83
9676;BME280;4876;42.656;23.292;2023-05-22T09:16:52;94124.72;;;21.74;43.63
9676;BME280;4876;42.656;23.292;2023-05-22T09:19:20;94106.00;;;20.92;43.84
9676;BME280;4876;42.656;23.292;2023-05-22T09:21:46;94127.78;;;21.23;44.89
9676;BME280;4876;42.656;23.292;2023-05-22T09:24:13;94118.25;;;21.47;44.56
9676;BME280;4876;42.656;23.292;2023-05-22T09:26:40;94115.56;;;21.58;42.88
9676;BME280;4876;42.656;23.292;2023-05-22T09:29:08;94120.91;;;21.18;42.22
9676;BME280;4876;42.656;23.292;2023-05-22T09:31:42;94122.03;;;20.92;42.04
9676;BME280;4876;42.656;23.292;2023-05-22T09:34:09;94124.69;;;20.75;43.41
9676;BME280;4876;42.656;23.292;2023-05-22T09:36:38;94116.31;;;20.87;42.51
9676;BME280;4876;42.656;23.292;2023-05-22T09:39:05;94126.63;;;20.81;43.60
9676;BME280;4876;42.656;23.292;2023-05-22T09:41:34;94120.78;;;20.43;43.55
9676;BME280;4876;42.656;23.292;2023-05-22T09:44:08;94122.34;;;20.52;43.68
9676;BME280;4876;42.656;23.292;2023-05-22T09:46:40;94133.66;;;20.20;44.74
9676;BME280;4876;42.656;23.292;2023-05-22T09:49:07;94129.13;;;20.31;45.57
9676;BME280;4876;42.656;23.292;2023-05-22T09:51:34;94125.34;;;20.39;46.64
9676;BME280;4876;42.656;23.292;2023-05-22T09:54:03;94127.25;;;20.42;46.64
9676;BME280;4876;42.656;23.292;2023-05-22T09:56:31;94122.38;;;20.62;45.81
9676;BME280;4876;42.656;23.292;2023-05-22T09:59:01;94120.81;;;20.47;46.57
9676;BME280;4876;42.656;23.292;2023-05-22T10:01:31;94134.03;;;20.22;47.42
9676;BME280;4876;42.656;23.292;2023-05-22T10:03:59;94127.47;;;20.02;48.50
9676;BME280;4876;42.656;23.292;2023-05-22T10:06:26;94129.25;;;19.80;48.98
9676;BME280;4876;42.656;23.292;2023-05-22T10:08:59;94130.41;;;19.79;50.33
9676;BME280;4876;42.656;23.292;2023-05-22T10:11:29;94134.47;;;19.62;52.30
9676;BME280;4876;42.656;23.292;2023-05-22T10:14:01;94136.38;;;19.58;52.21
9676;BME280;4876;42.656;23.292;2023-05-22T10:16:31;94125.72;;;19.58;52.95
9676;BME280;4876;42.656;23.292;2023-05-22T10:19:02;94132.47;;;19.48;53.63
9676;BME280;4876;42.656;23.292;2023-05-22T10:21:29;94128.69;;;19.53;53.59
9676;BME280;4876;42.656;23.292;2023-05-22T10:23:58;94134.94;;;19.71;54.86
9676;BME280;4876;42.656;23.292;2023-05-22T10:26:26;94144.06;;;19.70;53.16
9676;BME280;4876;42.656;23.292;2023-05-22T10:28:59;94125.72;;;19.58;53.61
9676;BME280;4876;42.656;23.292;2023-05-22T10:31:37;94125.22;;;19.45;53.40
9676;BME280;4876;42.656;23.292;2023-05-22T10:34:10;94127.31;;;19.22;54.63
9676;BME280;4876;42.656;23.292;2023-05-22T10:36:49;94135.31;;;19.22;55.37
9676;BME280;4876;42.656;23.292;2023-05-22T10:39:30;94149.84;;;18.83;56.94
9676;BME280;4876;42.656;23.292;2023-05-22T10:42:00;94153.84;;;18.33;61.68
9676;BME280;4876;42.656;23.292;2023-05-22T10:44:27;94190.78;;;17.32;67.43
9676;BME280;4876;42.656;23.292;2023-05-22T10:46:55;94183.88;;;16.43;77.42
9676;BME280;4876;42.656;23.292;2023-05-22T10:49:22;94182.09;;;15.93;73.24
9676;BME280;4876;42.656;23.292;2023-05-22T10:51:54;94165.13;;;15.78;69.77
9676;BME280;4876;42.656;23.292;2023-05-22T10:54:37;94157.66;;;15.83;71.09
9676;BME280;4876;42.656;23.292;2023-05-22T10:57:09;94139.75;;;15.96;73.69
9676;BME280;4876;42.656;23.292;2023-05-22T10:59:36;94140.78;;;16.30;77.79
9676;BME280;4876;42.656;23.292;2023-05-22T11:02:17;94140.34;;;16.48;73.97
9676;BME280;4876;42.656;23.292;2023-05-22T11:04:45;94135.88;;;16.71;85.07
9676;BME280;4876;42.656;23.292;2023-05-22T11:07:12;94136.91;;;17.09;88.96
9676;BME280;4876;42.656;23.292;2023-05-22T11:09:41;94118.56;;;17.27;90.93
9676;BME280;4876;42.656;23.292;2023-05-22T11:12:14;94130.06;;;17.61;89.93
9676;BME280;4876;42.656;23.292;2023-05-22T11:14:42;94130.75;;;17.81;85.71
9676;BME280;4876;42.656;23.292;2023-05-22T11:17:12;94125.72;;;18.02;82.06
9676;BME280;4876;42.656;23.292;2023-05-22T11:19:39;94128.94;;;18.18;81.27
9676;BME280;4876;42.656;23.292;2023-05-22T11:22:06;94117.09;;;18.46;82.89
9676;BME280;4876;42.656;23.292;2023-05-22T11:24:34;94118.16;;;18.75;81.30
9676;BME280;4876;42.656;23.292;2023-05-22T11:27:05;94119.78;;;18.87;78.98
9676;BME280;4876;42.656;23.292;2023-05-22T11:29:32;94112.94;;;18.86;78.67
9676;BME280;4876;42.656;23.292;2023-05-22T11:32:00;94118.38;;;18.59;76.90
9676;BME280;4876;42.656;23.292;2023-05-22T11:34:28;94151.09;;;18.63;71.79
9676;BME280;4876;42.656;23.292;2023-05-22T11:36:58;94161.72;;;17.69;71.24
9676;BME280;4876;42.656;23.292;2023-05-22T11:39:25;94178.28;;;16.67;68.74
9676;BME280;4876;42.656;23.292;2023-05-22T11:41:52;94179.81;;;15.91;73.32
9676;BME280;4876;42.656;23.292;2023-05-22T11:44:19;94175.97;;;15.57;73.96
9676;BME280;4876;42.656;23.292;2023-05-22T11:46:46;94178.31;;;15.27;76.98
9676;BME280;4876;42.656;23.292;2023-05-22T11:49:13;94179.00;;;15.24;80.98
9676;BME280;4876;42.656;23.292;2023-05-22T11:51:42;94178.84;;;15.17;83.47
9676;BME280;4876;42.656;23.292;2023-05-22T11:54:09;94180.53;;;15.25;86.65
9676;BME280;4876;42.656;23.292;2023-05-22T11:56:36;94180.81;;;15.35;92.92
9676;BME280;4876;42.656;23.292;2023-05-22T11:59:03;94174.75;;;15.35;96.77
9676;BME280;4876;42.656;23.292;2023-05-22T12:01:31;94172.59;;;15.41;93.01
9676;BME280;4876;42.656;23.292;2023-05-22T12:03:57;94165.94;;;15.47;91.82
9676;BME280;4876;42.656;23.292;2023-05-22T12:06:25;94162.38;;;15.58;85.26
9676;BME280;4876;42.656;23.292;2023-05-22T12:08:54;94162.38;;;15.58;84.67
9676;BME280;4876;42.656;23.292;2023-05-22T12:11:21;94159.31;;;15.56;87.50
9676;BME280;4876;42.656;23.292;2023-05-22T12:13:48;94159.72;;;15.58;84.58
9676;BME280;4876;42.656;23.292;2023-05-22T12:16:17;94163.50;;;15.57;82.67
9676;BME280;4876;42.656;23.292;2023-05-22T12:18:46;94160.69;;;15.50;85.50
9676;BME280;4876;42.656;23.292;2023-05-22T12:21:13;94168.63;;;15.50;85.47
9676;BME280;4876;42.656;23.292;2023-05-22T12:23:47;94152.22;;;15.45;82.66
9676;BME280;4876;42.656;23.292;2023-05-22T12:26:15;94158.13;;;15.38;85.47
9676;BME280;4876;42.656;23.292;2023-05-22T12:28:42;94152.13;;;15.57;83.18
9676;BME280;4876;42.656;23.292;2023-05-22T12:31:09;94152.81;;;15.70;85.28
9676;BME280;4876;42.656;23.292;2023-05-22T12:33:38;94157.94;;;15.78;80.74
9676;BME280;4876;42.656;23.292;2023-05-22T12:36:07;94139.66;;;15.93;84.15
9676;BME280;4876;42.656;23.292;2023-05-22T12:38:36;94147.22;;;15.91;84.00
9676;BME280;4876;42.656;23.292;2023-05-22T12:41:03;94140.44;;;15.93;82.19
9676;BME280;4876;42.656;23.292;2023-05-22T12:43:31;94134.63;;;16.07;80.93
9676;BME280;4876;42.656;23.292;2023-05-22T12:45:58;94143.19;;;16.16;80.70
9676;BME280;4876;42.656;23.292;2023-05-22T12:48:25;94142.41;;;16.35;81.10
9676;BME280;4876;42.656;23.292;2023-05-22T12:50:52;94136.19;;;16.47;84.05
9676;BME280;4876;42.656;23.292;2023-05-22T12:53:19;94136.44;;;16.61;79.14
9676;BME280;4876;42.656;23.292;2023-05-22T12:55:46;94134.66;;;16.68;77.87
9676;BME280;4876;42.656;23.292;2023-05-22T12:58:12;94141.84;;;16.87;78.88
9676;BME280;4876;42.656;23.292;2023-05-22T13:00:41;94138.66;;;17.01;76.72
9676;BME280;4876;42.656;23.292;2023-05-22T13:03:07;94132.25;;;17.02;76.81
9676;BME280;4876;42.656;23.292;2023-05-22T13:05:38;94135.28;;;17.04;74.82
9676;BME280;4876;42.656;23.292;2023-05-22T13:08:04;94138.47;;;17.13;74.28
9676;BME280;4876;42.656;23.292;2023-05-22T13:10:31;94138.59;;;17.20;69.24
9676;BME280;4876;42.656;23.292;2023-05-22T13:12:59;94128.19;;;17.35;67.74
9676;BME280;4876;42.656;23.292;2023-05-22T13:15:26;94127.16;;;17.43;72.83